sensor_id;sensor_type;location;lat;lon;timestamp;temperature;humidity
35305;DHT22;26433;48.034;-1.764;2023-02-18T06:04:31;12.20;99.90
35305;DHT22;26433;48.034;-1.764;2023-02-18T06:09:35;12.20;99.90
35305;DHT22;26433;48.034;-1.764;2023-02-18T06:14:38;12.20;99.90
35305;DHT22;26433;48.034;-1.764;2023-02-18T06:19:45;12.20;99.90
35305;DHT22;26433;48.034;-1.764;2023-02-18T06:24:48;12.30;99.90
35305;DHT22;26433;48.034;-1.764;2023-02-18T06:29:52;12.30;99.90
35305;DHT22;26433;48.034;-1.764;2023-02-18T06:34:57;12.40;99.90
35305;DHT22;26433;48.034;-1.764;2023-02-18T06:40:01;12.40;99.70
35305;DHT22;26433;48.034;-1.764;2023-02-18T06:45:05;12.40;99.60
35305;DHT22;26433;48.034;-1.764;2023-02-18T06:50:10;12.40;99.80
35305;DHT22;26433;48.034;-1.764;2023-02-18T06:55:14;12.40;99.90
35305;DHT22;26433;48.034;-1.764;2023-02-18T07:00:18;12.30;99.80
35305;DHT22;26433;48.034;-1.764;2023-02-18T07:05:23;12.30;99.90
35305;DHT22;26433;48.034;-1.764;2023-02-18T07:10:27;12.20;99.90
35305;DHT22;26433;48.034;-1.764;2023-02-18T07:15:30;12.20;99.90
35305;DHT22;26433;48.034;-1.764;2023-02-18T07:20:36;12.10;99.90
35305;DHT22;26433;48.034;-1.764;2023-02-18T07:25:39;12.10;99.90
35305;DHT22;26433;48.034;-1.764;2023-02-18T07:30:43;12.00;99.90
35305;DHT22;26433;48.034;-1.764;2023-02-18T07:35:52;12.00;99.90
35305;DHT22;26433;48.034;-1.764;2023-02-18T07:40:56;12.00;99.90
35305;DHT22;26433;48.034;-1.764;2023-02-18T07:46:05;12.00;99.90
35305;DHT22;26433;48.034;-1.764;2023-02-18T07:51:11;12.00;99.90
35305;DHT22;26433;48.034;-1.764;2023-02-18T07:56:14;12.00;99.90
35305;DHT22;26433;48.034;-1.764;2023-02-18T08:01:19;12.10;99.90
35305;DHT22;26433;48.034;-1.764;2023-02-18T08:06:27;12.10;99.90
35305;DHT22;26433;48.034;-1.764;2023-02-18T08:11:31;12.30;99.90
35305;DHT22;26433;48.034;-1.764;2023-02-18T08:16:35;12.10;99.90
35305;DHT22;26433;48.034;-1.764;2023-02-18T08:21:40;12.10;99.90
35305;DHT22;26433;48.034;-1.764;2023-02-18T08:26:44;12.10;99.90
35305;DHT22;26433;48.034;-1.764;2023-02-18T08:32:01;12.20;99.90
35305;DHT22;26433;48.034;-1.764;2023-02-18T08:37:07;12.30;99.90
35305;DHT22;26433;48.034;-1.764;2023-02-18T08:42:10;12.30;99.90
35305;DHT22;26433;48.034;-1.764;2023-02-18T08:47:14;12.50;99.90
35305;DHT22;26433;48.034;-1.764;2023-02-18T08:52:39;12.50;99.90
35305;DHT22;26433;48.034;-1.764;2023-02-18T08:57:43;12.60;99.90
35305;DHT22;26433;48.034;-1.764;2023-02-18T09:02:47;12.60;99.90
35305;DHT22;26433;48.034;-1.764;2023-02-18T09:07:52;12.70;99.90
35305;DHT22;26433;48.034;-1.764;2023-02-18T09:12:56;12.80;99.90
35305;DHT22;26433;48.034;-1.764;2023-02-18T09:17:59;12.90;99.90
35305;DHT22;26433;48.034;-1.764;2023-02-18T09:23:05;13.10;99.40
35305;DHT22;26433;48.034;-1.764;2023-02-18T09:28:08;13.20;99.10
35305;DHT22;26433;48.034;-1.764;2023-02-18T09:33:12;13.30;99.10
35305;DHT22;26433;48.034;-1.764;2023-02-18T09:38:17;13.40;98.30
35305;DHT22;26433;48.034;-1.764;2023-02-18T09:43:28;13.40;98.50
35305;DHT22;26433;48.034;-1.764;2023-02-18T09:48:34;13.40;98.50
35305;DHT22;26433;48.034;-1.764;2023-02-18T09:53:41;13.50;98.40
35305;DHT22;26433;48.034;-1.764;2023-02-18T09:58:46;13.60;98.10
35305;DHT22;26433;48.034;-1.764;2023-02-18T10:03:51;13.60;97.60
35305;DHT22;26433;48.034;-1.764;2023-02-18T10:09:01;13.60;97.70
35305;DHT22;26433;48.034;-1.764;2023-02-18T10:14:10;13.50;97.90
35305;DHT22;26433;48.034;-1.764;2023-02-18T10:19:21;13.50;98.10
35305;DHT22;26433;48.034;-1.764;2023-02-18T10:24:29;13.50;97.90
35305;DHT22;26433;48.034;-1.764;2023-02-18T10:29:35;13.40;97.60
35305;DHT22;26433;48.034;-1.764;2023-02-18T10:34:40;13.40;98.30
35305;DHT22;26433;48.034;-1.764;2023-02-18T10:39:59;13.60;97.60
35305;DHT22;26433;48.034;-1.764;2023-02-18T10:45:15;13.80;97.00
35305;DHT22;26433;48.034;-1.764;2023-02-18T10:50:27;13.80;96.50
35305;DHT22;26433;48.034;-1.764;2023-02-18T10:55:37;13.90;96.10
35305;DHT22;26433;48.034;-1.764;2023-02-18T11:00:41;13.90;96.00
35305;DHT22;26433;48.034;-1.764;2023-02-18T11:05:46;13.90;95.40
35305;DHT22;26433;48.034;-1.764;2023-02-18T11:10:52;14.00;95.40
35305;DHT22;26433;48.034;-1.764;2023-02-18T11:15:59;14.00;95.10
35305;DHT22;26433;48.034;-1.764;2023-02-18T11:21:04;14.20;94.70
35305;DHT22;26433;48.034;-1.764;2023-02-18T11:26:14;14.20;94.60
35305;DHT22;26433;48.034;-1.764;2023-02-18T11:31:23;14.20;94.20
35305;DHT22;26433;48.034;-1.764;2023-02-18T11:36:29;14.30;94.00
35305;DHT22;26433;48.034;-1.764;2023-02-18T11:41:36;14.30;93.50
35305;DHT22;26433;48.034;-1.764;2023-02-18T11:46:55;14.30;93.50
35305;DHT22;26433;48.034;-1.764;2023-02-18T11:52:08;14.40;93.10
35305;DHT22;26433;48.034;-1.764;2023-02-18T11:57:19;14.40;92.70
35305;DHT22;26433;48.034;-1.764;2023-02-18T12:02:33;14.40;92.50
35305;DHT22;26433;48.034;-1.764;2023-02-18T12:07:42;14.40;92.70
35305;DHT22;26433;48.034;-1.764;2023-02-18T12:12:50;14.40;92.30
35305;DHT22;26433;48.034;-1.764;2023-02-18T12:18:08;14.60;91.80
35305;DHT22;26433;48.034;-1.764;2023-02-18T12:23:22;14.70;91.20
35305;DHT22;26433;48.034;-1.764;2023-02-18T12:28:38;14.80;91.00
35305;DHT22;26433;48.034;-1.764;2023-02-18T12:33:54;14.80;90.50
35305;DHT22;26433;48.034;-1.764;2023-02-18T12:39:09;14.80;90.30
35305;DHT22;26433;48.034;-1.764;2023-02-18T12:44:28;14.80;90.20
35305;DHT22;26433;48.034;-1.764;2023-02-18T12:50:02;14.80;89.30
35305;DHT22;26433;48.034;-1.764;2023-02-18T12:55:30;14.60;88.80
35305;DHT22;26433;48.034;-1.764;2023-02-18T13:00:57;14.50;89.20
35305;DHT22;26433;48.034;-1.764;2023-02-18T13:06:12;14.50;88.90
35305;DHT22;26433;48.034;-1.764;2023-02-18T13:11:23;14.50;88.30
35305;DHT22;26433;48.034;-1.764;2023-02-18T13:16:34;14.70;87.60
35305;DHT22;26433;48.034;-1.764;2023-02-18T13:21:38;14.70;87.00
35305;DHT22;26433;48.034;-1.764;2023-02-18T13:26:45;14.70;86.50
35305;DHT22;26433;48.034;-1.764;2023-02-18T13:32:00;14.60;85.80
35305;DHT22;26433;48.034;-1.764;2023-02-18T13:37:14;14.60;86.00
35305;DHT22;26433;48.034;-1.764;2023-02-18T13:42:41;14.60;86.00
35305;DHT22;26433;48.034;-1.764;2023-02-18T13:47:47;14.60;85.30
35305;DHT22;26433;48.034;-1.764;2023-02-18T13:53:11;14.60;85.40
35305;DHT22;26433;48.034;-1.764;2023-02-18T13:58:17;14.60;85.00
35305;DHT22;26433;48.034;-1.764;2023-02-18T14:03:35;14.70;84.20
35305;DHT22;26433;48.034;-1.764;2023-02-18T14:08:39;14.60;84.30
35305;DHT22;26433;48.034;-1.764;2023-02-18T14:13:47;14.60;84.60
35305;DHT22;26433;48.034;-1.764;2023-02-18T14:18:59;14.60;84.70
35305;DHT22;26433;48.034;-1.764;2023-02-18T14:24:05;14.70;83.90
35305;DHT22;26433;48.034;-1.764;2023-02-18T14:29:14;14.70;83.50
35305;DHT22;26433;48.034;-1.764;2023-02-18T14:34:56;14.60;83.70
35305;DHT22;26433;48.034;-1.764;2023-02-18T14:40:17;14.70;83.70
35305;DHT22;26433;48.034;-1.764;2023-02-18T14:45:32;14.70;83.30
35305;DHT22;26433;48.034;-1.764;2023-02-18T14:50:43;14.70;82.70
35305;DHT22;26433;48.034;-1.764;2023-02-18T14:55:54;14.60;83.10
35305;DHT22;26433;48.034;-1.764;2023-02-18T15:01:05;14.50;83.50
35305;DHT22;26433;48.034;-1.764;2023-02-18T15:06:24;14.50;83.40
35305;DHT22;26433;48.034;-1.764;2023-02-18T15:11:35;14.50;83.30
35305;DHT22;26433;48.034;-1.764;2023-02-18T15:16:39;14.50;83.10
35305;DHT22;26433;48.034;-1.764;2023-02-18T15:21:46;14.50;83.20
35305;DHT22;26433;48.034;-1.764;2023-02-18T15:26:52;14.60;83.40
35305;DHT22;26433;48.034;-1.764;2023-02-18T15:31:58;14.60;83.20
35305;DHT22;26433;48.034;-1.764;2023-02-18T15:37:05;14.60;82.90
35305;DHT22;26433;48.034;-1.764;2023-02-18T15:42:15;14.60;82.90
35305;DHT22;26433;48.034;-1.764;2023-02-18T15:47:21;14.60;82.80
35305;DHT22;26433;48.034;-1.764;2023-02-18T15:52:28;14.50;83.30
35305;DHT22;26433;48.034;-1.764;2023-02-18T15:57:35;14.50;83.20
35305;DHT22;26433;48.034;-1.764;2023-02-18T16:02:51;14.50;83.40
35305;DHT22;26433;48.034;-1.764;2023-02-18T16:08:04;14.60;83.30
35305;DHT22;26433;48.034;-1.764;2023-02-18T16:13:12;14.50;83.40
35305;DHT22;26433;48.034;-1.764;2023-02-18T16:18:27;14.50;83.20
35305;DHT22;26433;48.034;-1.764;2023-02-18T16:23:42;14.50;83.80
35305;DHT22;26433;48.034;-1.764;2023-02-18T16:28:46;14.40;83.60
35305;DHT22;26433;48.034;-1.764;2023-02-18T16:33:51;14.40;84.00
35305;DHT22;26433;48.034;-1.764;2023-02-18T16:38:57;14.50;83.70
35305;DHT22;26433;48.034;-1.764;2023-02-18T16:44:12;14.50;83.70
35305;DHT22;26433;48.034;-1.764;2023-02-18T16:49:16;14.40;83.80
35305;DHT22;26433;48.034;-1.764;2023-02-18T16:54:23;14.40;83.90
35305;DHT22;26433;48.034;-1.764;2023-02-18T16:59:27;14.40;84.40
35305;DHT22;26433;48.034;-1.764;2023-02-18T17:04:30;14.40;84.30
35305;DHT22;26433;48.034;-1.764;2023-02-18T17:09:36;14.50;83.90
35305;DHT22;26433;48.034;-1.764;2023-02-18T17:14:39;14.50;83.60
35305;DHT22;26433;48.034;-1.764;2023-02-18T17:19:43;14.50;83.90
35305;DHT22;26433;48.034;-1.764;2023-02-18T17:24:48;14.40;84.20
35305;DHT22;26433;48.034;-1.764;2023-02-18T17:29:52;14.40;84.20
35305;DHT22;26433;48.034;-1.764;2023-02-18T17:34:56;14.40;84.50
35305;DHT22;26433;48.034;-1.764;2023-02-18T17:40:01;14.30;84.60
35305;DHT22;26433;48.034;-1.764;2023-02-18T17:45:14;14.30;84.60
35305;DHT22;26433;48.034;-1.764;2023-02-18T17:50:20;14.30;84.80
35305;DHT22;26433;48.034;-1.764;2023-02-18T17:55:27;14.30;84.90
35305;DHT22;26433;48.034;-1.764;2023-02-18T18:00:33;14.30;85.00
35305;DHT22;26433;48.034;-1.764;2023-02-18T18:05:39;14.30;85.20
35305;DHT22;26433;48.034;-1.764;2023-02-18T18:10:47;14.20;85.20
35305;DHT22;26433;48.034;-1.764;2023-02-18T18:15:52;14.20;85.20
35305;DHT22;26433;48.034;-1.764;2023-02-18T18:21:00;14.20;85.40
35305;DHT22;26433;48.034;-1.764;2023-02-18T18:26:05;14.20;85.60
35305;DHT22;26433;48.034;-1.764;2023-02-18T18:31:12;14.10;85.90
35305;DHT22;26433;48.034;-1.764;2023-02-18T18:36:17;14.10;86.30
35305;DHT22;26433;48.034;-1.764;2023-02-18T18:41:23;14.10;86.40
35305;DHT22;26433;48.034;-1.764;2023-02-18T18:46:27;14.10;86.50
35305;DHT22;26433;48.034;-1.764;2023-02-18T18:51:31;14.10;86.50
35305;DHT22;26433;48.034;-1.764;2023-02-18T18:56:36;14.10;86.20
35305;DHT22;26433;48.034;-1.764;2023-02-18T19:01:40;14.10;86.20
35305;DHT22;26433;48.034;-1.764;2023-02-18T19:06:44;14.10;86.10
35305;DHT22;26433;48.034;-1.764;2023-02-18T19:11:49;14.10;86.70
35305;DHT22;26433;48.034;-1.764;2023-02-18T19:16:53;14.00;86.80
35305;DHT22;26433;48.034;-1.764;2023-02-18T19:21:57;14.00;87.50
35305;DHT22;26433;48.034;-1.764;2023-02-18T19:27:02;14.00;88.20
35305;DHT22;26433;48.034;-1.764;2023-02-18T19:32:06;13.50;87.20
35305;DHT22;26433;48.034;-1.764;2023-02-18T19:37:10;14.00;87.50
35305;DHT22;26433;48.034;-1.764;2023-02-18T19:42:15;14.00;88.00
35305;DHT22;26433;48.034;-1.764;2023-02-18T19:47:18;14.00;88.30
35305;DHT22;26433;48.034;-1.764;2023-02-18T19:52:22;14.00;88.30
35305;DHT22;26433;48.034;-1.764;2023-02-18T19:57:27;14.00;88.70
35305;DHT22;26433;48.034;-1.764;2023-02-18T20:02:31;14.00;88.50
35305;DHT22;26433;48.034;-1.764;2023-02-18T20:07:35;14.10;88.70
35305;DHT22;26433;48.034;-1.764;2023-02-18T20:12:40;14.10;88.50
35305;DHT22;26433;48.034;-1.764;2023-02-18T20:17:44;14.10;88.30
35305;DHT22;26433;48.034;-1.764;2023-02-18T20:22:48;14.10;89.10
35305;DHT22;26433;48.034;-1.764;2023-02-18T20:27:53;14.00;89.20
35305;DHT22;26433;48.034;-1.764;2023-02-18T20:33:02;13.90;89.60
35305;DHT22;26433;48.034;-1.764;2023-02-18T20:38:07;13.80;90.20
35305;DHT22;26433;48.034;-1.764;2023-02-18T20:43:12;13.80;90.30
35305;DHT22;26433;48.034;-1.764;2023-02-18T20:48:15;13.80;90.30
35305;DHT22;26433;48.034;-1.764;2023-02-18T20:53:19;13.80;90.20
35305;DHT22;26433;48.034;-1.764;2023-02-18T20:58:24;13.80;90.40
35305;DHT22;26433;48.034;-1.764;2023-02-18T21:03:32;13.80;90.50
35305;DHT22;26433;48.034;-1.764;2023-02-18T21:08:37;13.70;90.60
35305;DHT22;26433;48.034;-1.764;2023-02-18T21:13:44;13.70;90.70
35305;DHT22;26433;48.034;-1.764;2023-02-18T21:18:49;13.70;90.80
35305;DHT22;26433;48.034;-1.764;2023-02-18T21:23:52;13.60;90.90
35305;DHT22;26433;48.034;-1.764;2023-02-18T21:29:00;13.60;90.90
35305;DHT22;26433;48.034;-1.764;2023-02-18T21:34:09;13.60;91.20
35305;DHT22;26433;48.034;-1.764;2023-02-18T21:39:13;13.60;91.30
35305;DHT22;26433;48.034;-1.764;2023-02-18T21:44:18;13.60;91.40
35305;DHT22;26433;48.034;-1.764;2023-02-18T21:49:31;13.60;91.50
35305;DHT22;26433;48.034;-1.764;2023-02-18T21:54:36;13.50;91.40
35305;DHT22;26433;48.034;-1.764;2023-02-18T21:59:42;13.30;91.60
35305;DHT22;26433;48.034;-1.764;2023-02-18T22:04:47;13.40;91.80
35305;DHT22;26433;48.034;-1.764;2023-02-18T22:09:51;13.40;92.10
35305;DHT22;26433;48.034;-1.764;2023-02-18T22:14:57;13.40;92.20
35305;DHT22;26433;48.034;-1.764;2023-02-18T22:20:01;13.40;92.20
35305;DHT22;26433;48.034;-1.764;2023-02-18T22:25:07;13.40;92.40
35305;DHT22;26433;48.034;-1.764;2023-02-18T22:30:12;13.30;92.60
35305;DHT22;26433;48.034;-1.764;2023-02-18T22:35:16;13.30;92.90
35305;DHT22;26433;48.034;-1.764;2023-02-18T22:40:20;13.20;93.10
35305;DHT22;26433;48.034;-1.764;2023-02-18T22:45:25;13.10;93.50
35305;DHT22;26433;48.034;-1.764;2023-02-18T22:50:28;13.10;93.70
35305;DHT22;26433;48.034;-1.764;2023-02-18T22:55:32;13.10;93.90
35305;DHT22;26433;48.034;-1.764;2023-02-18T23:00:37;13.10;94.00
35305;DHT22;26433;48.034;-1.764;2023-02-18T23:05:41;13.10;93.90
35305;DHT22;26433;48.034;-1.764;2023-02-18T23:10:44;13.10;93.80
35305;DHT22;26433;48.034;-1.764;2023-02-18T23:15:56;13.10;93.90
35305;DHT22;26433;48.034;-1.764;2023-02-18T23:21:00;13.10;94.20
35305;DHT22;26433;48.034;-1.764;2023-02-18T23:26:21;13.20;94.20
